sensor_id;sensor_type;location;lat;lon;timestamp;temperature;humidity
36352;DHT22;22382;44.768;17.206;2022-11-15T00:00:58;9.10;99.90
36352;DHT22;22382;44.768;17.206;2022-11-15T00:03:27;9.20;99.90
36352;DHT22;22382;44.768;17.206;2022-11-15T00:05:54;9.20;99.90
36352;DHT22;22382;44.768;17.206;2022-11-15T00:08:21;9.20;99.90
36352;DHT22;22382;44.768;17.206;2022-11-15T00:11:00;9.20;99.90
36352;DHT22;22382;44.768;17.206;2022-11-15T00:13:28;9.10;99.90
36352;DHT22;22382;44.768;17.206;2022-11-15T00:16:00;9.10;99.90
36352;DHT22;22382;44.768;17.206;2022-11-15T00:18:28;9.10;99.90
36352;DHT22;22382;44.768;17.206;2022-11-15T00:20:56;9.20;99.90
36352;DHT22;22382;44.768;17.206;2022-11-15T00:23:23;9.20;99.90
36352;DHT22;22382;44.768;17.206;2022-11-15T00:25:57;9.20;99.90
36352;DHT22;22382;44.768;17.206;2022-11-15T00:28:25;9.20;99.90
36352;DHT22;22382;44.768;17.206;2022-11-15T00:30:52;9.20;99.90
36352;DHT22;22382;44.768;17.206;2022-11-15T00:33:19;9.20;99.90
36352;DHT22;22382;44.768;17.206;2022-11-15T00:35:46;9.20;99.90
36352;DHT22;22382;44.768;17.206;2022-11-15T00:38:13;9.20;99.90
36352;DHT22;22382;44.768;17.206;2022-11-15T00:40:41;9.20;99.90
36352;DHT22;22382;44.768;17.206;2022-11-15T00:43:08;9.20;99.90
36352;DHT22;22382;44.768;17.206;2022-11-15T00:45:35;9.20;99.90
36352;DHT22;22382;44.768;17.206;2022-11-15T00:48:02;9.20;99.90
36352;DHT22;22382;44.768;17.206;2022-11-15T00:50:29;9.30;99.90
36352;DHT22;22382;44.768;17.206;2022-11-15T00:52:56;9.30;99.90
36352;DHT22;22382;44.768;17.206;2022-11-15T00:55:23;9.30;99.90
36352;DHT22;22382;44.768;17.206;2022-11-15T00:57:50;9.30;99.90
36352;DHT22;22382;44.768;17.206;2022-11-15T01:00:17;9.30;99.90
36352;DHT22;22382;44.768;17.206;2022-11-15T01:02:44;9.30;99.90
36352;DHT22;22382;44.768;17.206;2022-11-15T01:05:11;9.30;99.90
36352;DHT22;22382;44.768;17.206;2022-11-15T01:07:38;9.30;99.90
36352;DHT22;22382;44.768;17.206;2022-11-15T01:10:06;9.30;99.90
36352;DHT22;22382;44.768;17.206;2022-11-15T01:12:33;9.40;99.90
36352;DHT22;22382;44.768;17.206;2022-11-15T01:15:00;9.40;99.90
36352;DHT22;22382;44.768;17.206;2022-11-15T01:17:27;9.30;99.90
36352;DHT22;22382;44.768;17.206;2022-11-15T01:19:54;9.20;99.90
36352;DHT22;22382;44.768;17.206;2022-11-15T01:22:21;9.10;99.90
36352;DHT22;22382;44.768;17.206;2022-11-15T01:24:50;9.10;99.90
36352;DHT22;22382;44.768;17.206;2022-11-15T01:27:17;9.10;99.90
36352;DHT22;22382;44.768;17.206;2022-11-15T01:29:44;9.10;99.90
36352;DHT22;22382;44.768;17.206;2022-11-15T01:32:11;8.90;99.90
36352;DHT22;22382;44.768;17.206;2022-11-15T01:34:38;8.90;99.90
36352;DHT22;22382;44.768;17.206;2022-11-15T01:37:05;8.90;99.90
36352;DHT22;22382;44.768;17.206;2022-11-15T01:39:33;9.00;99.90
36352;DHT22;22382;44.768;17.206;2022-11-15T01:42:00;9.00;99.90
36352;DHT22;22382;44.768;17.206;2022-11-15T01:47:04;9.00;99.90
36352;DHT22;22382;44.768;17.206;2022-11-15T01:49:35;8.90;99.90
36352;DHT22;22382;44.768;17.206;2022-11-15T01:52:10;8.90;99.90
36352;DHT22;22382;44.768;17.206;2022-11-15T01:54:40;8.80;99.90
36352;DHT22;22382;44.768;17.206;2022-11-15T01:57:09;8.90;99.90
36352;DHT22;22382;44.768;17.206;2022-11-15T01:59:38;8.90;99.90
36352;DHT22;22382;44.768;17.206;2022-11-15T02:02:06;8.90;99.90
36352;DHT22;22382;44.768;17.206;2022-11-15T02:04:45;8.90;99.90
36352;DHT22;22382;44.768;17.206;2022-11-15T02:07:16;8.90;99.90
36352;DHT22;22382;44.768;17.206;2022-11-15T02:09:45;8.90;99.90
36352;DHT22;22382;44.768;17.206;2022-11-15T02:12:41;8.90;99.90
36352;DHT22;22382;44.768;17.206;2022-11-15T02:15:10;8.90;99.90
36352;DHT22;22382;44.768;17.206;2022-11-15T02:17:56;8.90;99.90
36352;DHT22;22382;44.768;17.206;2022-11-15T02:20:44;8.90;99.90
36352;DHT22;22382;44.768;17.206;2022-11-15T02:23:38;8.90;99.90
36352;DHT22;22382;44.768;17.206;2022-11-15T02:29:10;8.90;99.90
36352;DHT22;22382;44.768;17.206;2022-11-15T02:34:49;8.70;99.90
36352;DHT22;22382;44.768;17.206;2022-11-15T02:37:39;8.80;99.90
36352;DHT22;22382;44.768;17.206;2022-11-15T02:42:57;8.80;99.90
36352;DHT22;22382;44.768;17.206;2022-11-15T02:45:52;8.90;99.90
36352;DHT22;22382;44.768;17.206;2022-11-15T02:48:22;8.90;99.90
36352;DHT22;22382;44.768;17.206;2022-11-15T02:50:50;8.90;99.90
36352;DHT22;22382;44.768;17.206;2022-11-15T02:53:17;8.90;99.90
36352;DHT22;22382;44.768;17.206;2022-11-15T02:55:49;8.90;99.90
36352;DHT22;22382;44.768;17.206;2022-11-15T03:01:00;8.90;99.90
36352;DHT22;22382;44.768;17.206;2022-11-15T03:06:28;8.90;99.90
36352;DHT22;22382;44.768;17.206;2022-11-15T03:09:04;8.90;99.90
36352;DHT22;22382;44.768;17.206;2022-11-15T03:11:39;8.90;99.90
36352;DHT22;22382;44.768;17.206;2022-11-15T03:14:12;8.80;99.90
36352;DHT22;22382;44.768;17.206;2022-11-15T03:22:03;8.70;99.90
36352;DHT22;22382;44.768;17.206;2022-11-15T03:24:34;8.70;99.90
36352;DHT22;22382;44.768;17.206;2022-11-15T03:27:03;8.70;99.90
36352;DHT22;22382;44.768;17.206;2022-11-15T03:29:35;8.60;99.90
36352;DHT22;22382;44.768;17.206;2022-11-15T03:32:28;8.60;99.90
36352;DHT22;22382;44.768;17.206;2022-11-15T03:35:00;8.60;99.90
36352;DHT22;22382;44.768;17.206;2022-11-15T03:40:06;8.60;99.90
36352;DHT22;22382;44.768;17.206;2022-11-15T03:45:35;8.50;99.90
36352;DHT22;22382;44.768;17.206;2022-11-15T03:48:11;8.50;99.90
36352;DHT22;22382;44.768;17.206;2022-11-15T03:50:41;8.50;99.90
36352;DHT22;22382;44.768;17.206;2022-11-15T03:53:09;8.40;99.90
36352;DHT22;22382;44.768;17.206;2022-11-15T03:55:36;8.30;99.90
36352;DHT22;22382;44.768;17.206;2022-11-15T03:58:03;8.30;99.90
36352;DHT22;22382;44.768;17.206;2022-11-15T04:00:31;8.30;99.90
36352;DHT22;22382;44.768;17.206;2022-11-15T04:02:58;8.40;99.90
36352;DHT22;22382;44.768;17.206;2022-11-15T04:05:25;8.40;99.90
36352;DHT22;22382;44.768;17.206;2022-11-15T04:07:52;8.40;99.90
36352;DHT22;22382;44.768;17.206;2022-11-15T04:10:19;8.50;99.90
36352;DHT22;22382;44.768;17.206;2022-11-15T04:12:46;8.50;99.90
36352;DHT22;22382;44.768;17.206;2022-11-15T04:15:20;8.50;99.90
36352;DHT22;22382;44.768;17.206;2022-11-15T04:17:49;8.50;99.90
36352;DHT22;22382;44.768;17.206;2022-11-15T04:20:27;8.60;99.90
36352;DHT22;22382;44.768;17.206;2022-11-15T04:23:17;8.60;99.90
36352;DHT22;22382;44.768;17.206;2022-11-15T04:26:15;8.60;99.90
36352;DHT22;22382;44.768;17.206;2022-11-15T04:28:42;8.60;99.90
36352;DHT22;22382;44.768;17.206;2022-11-15T04:31:28;8.60;99.90
36352;DHT22;22382;44.768;17.206;2022-11-15T04:33:55;8.60;99.90
36352;DHT22;22382;44.768;17.206;2022-11-15T04:36:23;8.60;99.90
36352;DHT22;22382;44.768;17.206;2022-11-15T04:39:08;8.60;99.90
36352;DHT22;22382;44.768;17.206;2022-11-15T04:41:35;8.60;99.90
36352;DHT22;22382;44.768;17.206;2022-11-15T04:44:02;8.60;99.90
36352;DHT22;22382;44.768;17.206;2022-11-15T04:46:29;8.70;99.90
36352;DHT22;22382;44.768;17.206;2022-11-15T04:48:56;8.60;99.90
36352;DHT22;22382;44.768;17.206;2022-11-15T04:51:25;8.60;99.90
36352;DHT22;22382;44.768;17.206;2022-11-15T04:53:52;8.60;99.90
36352;DHT22;22382;44.768;17.206;2022-11-15T04:56:19;8.60;99.90
36352;DHT22;22382;44.768;17.206;2022-11-15T04:58:49;8.60;99.90
36352;DHT22;22382;44.768;17.206;2022-11-15T05:01:16;8.70;99.90
36352;DHT22;22382;44.768;17.206;2022-11-15T05:03:44;8.60;99.90
36352;DHT22;22382;44.768;17.206;2022-11-15T05:06:30;8.60;99.90
36352;DHT22;22382;44.768;17.206;2022-11-15T05:08:57;8.70;99.90
36352;DHT22;22382;44.768;17.206;2022-11-15T05:11:24;8.60;99.90
36352;DHT22;22382;44.768;17.206;2022-11-15T05:13:52;8.60;99.90
36352;DHT22;22382;44.768;17.206;2022-11-15T05:16:19;8.60;99.90
36352;DHT22;22382;44.768;17.206;2022-11-15T05:18:46;8.60;99.90
36352;DHT22;22382;44.768;17.206;2022-11-15T05:21:14;8.50;99.90
36352;DHT22;22382;44.768;17.206;2022-11-15T05:23:41;8.50;99.90
36352;DHT22;22382;44.768;17.206;2022-11-15T05:26:09;8.50;99.90
36352;DHT22;22382;44.768;17.206;2022-11-15T05:28:36;8.50;99.90
36352;DHT22;22382;44.768;17.206;2022-11-15T05:31:06;8.50;99.90
36352;DHT22;22382;44.768;17.206;2022-11-15T05:33:34;8.50;99.90
36352;DHT22;22382;44.768;17.206;2022-11-15T05:36:06;8.60;99.90
36352;DHT22;22382;44.768;17.206;2022-11-15T05:38:34;8.50;99.90
36352;DHT22;22382;44.768;17.206;2022-11-15T05:41:01;8.50;99.90
36352;DHT22;22382;44.768;17.206;2022-11-15T05:43:31;8.60;99.90
36352;DHT22;22382;44.768;17.206;2022-11-15T05:46:00;8.60;99.90
36352;DHT22;22382;44.768;17.206;2022-11-15T05:48:28;8.60;99.90
36352;DHT22;22382;44.768;17.206;2022-11-15T05:50:56;8.60;99.90
36352;DHT22;22382;44.768;17.206;2022-11-15T05:53:24;8.60;99.90
36352;DHT22;22382;44.768;17.206;2022-11-15T05:55:52;8.60;99.90
36352;DHT22;22382;44.768;17.206;2022-11-15T05:58:20;8.60;99.90
36352;DHT22;22382;44.768;17.206;2022-11-15T06:00:47;8.50;99.90
36352;DHT22;22382;44.768;17.206;2022-11-15T06:03:14;8.60;99.90
36352;DHT22;22382;44.768;17.206;2022-11-15T06:05:41;8.60;99.90
36352;DHT22;22382;44.768;17.206;2022-11-15T06:08:08;8.60;99.90
36352;DHT22;22382;44.768;17.206;2022-11-15T06:10:35;8.60;99.90
36352;DHT22;22382;44.768;17.206;2022-11-15T06:13:03;8.50;99.90
36352;DHT22;22382;44.768;17.206;2022-11-15T06:15:32;8.60;99.90
36352;DHT22;22382;44.768;17.206;2022-11-15T06:18:03;8.50;99.90
36352;DHT22;22382;44.768;17.206;2022-11-15T06:20:30;8.60;99.90
36352;DHT22;22382;44.768;17.206;2022-11-15T06:23:02;8.60;99.90
36352;DHT22;22382;44.768;17.206;2022-11-15T06:25:30;8.60;99.90
36352;DHT22;22382;44.768;17.206;2022-11-15T06:27:58;8.60;99.90
36352;DHT22;22382;44.768;17.206;2022-11-15T06:30:26;8.60;99.90
36352;DHT22;22382;44.768;17.206;2022-11-15T06:33:03;8.60;99.90
36352;DHT22;22382;44.768;17.206;2022-11-15T06:35:33;8.70;99.90
36352;DHT22;22382;44.768;17.206;2022-11-15T06:38:09;8.70;99.90
36352;DHT22;22382;44.768;17.206;2022-11-15T06:40:37;8.70;99.90
36352;DHT22;22382;44.768;17.206;2022-11-15T06:43:05;8.80;99.90
36352;DHT22;22382;44.768;17.206;2022-11-15T06:45:32;8.80;99.90
36352;DHT22;22382;44.768;17.206;2022-11-15T06:47:59;8.90;99.90
36352;DHT22;22382;44.768;17.206;2022-11-15T06:50:26;9.00;99.90
36352;DHT22;22382;44.768;17.206;2022-11-15T06:52:53;9.00;99.90
36352;DHT22;22382;44.768;17.206;2022-11-15T06:55:21;9.00;99.90
36352;DHT22;22382;44.768;17.206;2022-11-15T06:57:50;9.00;99.90
36352;DHT22;22382;44.768;17.206;2022-11-15T07:00:19;9.00;99.90
36352;DHT22;22382;44.768;17.206;2022-11-15T07:02:46;9.00;99.90
36352;DHT22;22382;44.768;17.206;2022-11-15T07:05:15;8.90;99.90
36352;DHT22;22382;44.768;17.206;2022-11-15T07:07:42;8.90;99.90
36352;DHT22;22382;44.768;17.206;2022-11-15T07:10:09;8.90;99.90
36352;DHT22;22382;44.768;17.206;2022-11-15T07:12:36;8.90;99.90
36352;DHT22;22382;44.768;17.206;2022-11-15T07:15:04;8.80;99.90
36352;DHT22;22382;44.768;17.206;2022-11-15T07:17:31;8.90;99.90
36352;DHT22;22382;44.768;17.206;2022-11-15T07:19:58;9.00;99.90
36352;DHT22;22382;44.768;17.206;2022-11-15T07:22:25;9.00;99.90
36352;DHT22;22382;44.768;17.206;2022-11-15T07:24:52;9.00;99.90
36352;DHT22;22382;44.768;17.206;2022-11-15T07:27:19;9.10;99.90
36352;DHT22;22382;44.768;17.206;2022-11-15T07:29:46;9.10;99.90
36352;DHT22;22382;44.768;17.206;2022-11-15T07:32:13;9.10;99.90
36352;DHT22;22382;44.768;17.206;2022-11-15T07:34:40;9.20;99.90
36352;DHT22;22382;44.768;17.206;2022-11-15T07:37:07;9.30;99.90
36352;DHT22;22382;44.768;17.206;2022-11-15T07:39:34;9.40;99.90
36352;DHT22;22382;44.768;17.206;2022-11-15T07:42:01;9.50;99.90
36352;DHT22;22382;44.768;17.206;2022-11-15T07:44:47;9.50;99.90
36352;DHT22;22382;44.768;17.206;2022-11-15T07:47:14;9.50;99.90
36352;DHT22;22382;44.768;17.206;2022-11-15T07:49:41;9.50;99.90
36352;DHT22;22382;44.768;17.206;2022-11-15T07:52:08;9.50;99.90
36352;DHT22;22382;44.768;17.206;2022-11-15T07:54:35;9.50;99.90
36352;DHT22;22382;44.768;17.206;2022-11-15T07:57:02;9.40;99.90
36352;DHT22;22382;44.768;17.206;2022-11-15T07:59:33;9.30;99.90
36352;DHT22;22382;44.768;17.206;2022-11-15T08:02:02;9.40;99.90
36352;DHT22;22382;44.768;17.206;2022-11-15T08:04:29;9.40;99.90
36352;DHT22;22382;44.768;17.206;2022-11-15T08:06:56;9.60;99.90
36352;DHT22;22382;44.768;17.206;2022-11-15T08:09:24;9.80;99.90
36352;DHT22;22382;44.768;17.206;2022-11-15T08:11:51;9.90;99.90
36352;DHT22;22382;44.768;17.206;2022-11-15T08:14:18;9.80;99.90
36352;DHT22;22382;44.768;17.206;2022-11-15T08:16:45;9.70;99.90
36352;DHT22;22382;44.768;17.206;2022-11-15T08:19:12;9.50;99.90
36352;DHT22;22382;44.768;17.206;2022-11-15T08:21:39;9.50;99.90
36352;DHT22;22382;44.768;17.206;2022-11-15T08:24:07;9.50;99.90
36352;DHT22;22382;44.768;17.206;2022-11-15T08:26:35;9.60;99.90
36352;DHT22;22382;44.768;17.206;2022-11-15T08:29:02;9.90;99.90
36352;DHT22;22382;44.768;17.206;2022-11-15T08:31:29;10.10;99.90
36352;DHT22;22382;44.768;17.206;2022-11-15T08:33:56;10.30;99.90
36352;DHT22;22382;44.768;17.206;2022-11-15T08:36:23;10.30;99.90
36352;DHT22;22382;44.768;17.206;2022-11-15T08:38:55;10.40;99.90
36352;DHT22;22382;44.768;17.206;2022-11-15T08:41:33;10.60;99.90
36352;DHT22;22382;44.768;17.206;2022-11-15T08:44:02;10.60;99.90
36352;DHT22;22382;44.768;17.206;2022-11-15T08:46:28;10.70;99.90
36352;DHT22;22382;44.768;17.206;2022-11-15T08:48:55;10.90;99.90
36352;DHT22;22382;44.768;17.206;2022-11-15T08:51:23;11.00;99.90
36352;DHT22;22382;44.768;17.206;2022-11-15T08:53:50;11.10;99.90
36352;DHT22;22382;44.768;17.206;2022-11-15T08:56:19;11.00;99.90
36352;DHT22;22382;44.768;17.206;2022-11-15T08:58:47;10.80;99.90
36352;DHT22;22382;44.768;17.206;2022-11-15T09:01:19;10.60;99.90
36352;DHT22;22382;44.768;17.206;2022-11-15T09:03:46;10.60;99.90
36352;DHT22;22382;44.768;17.206;2022-11-15T09:06:14;10.30;99.90
36352;DHT22;22382;44.768;17.206;2022-11-15T09:08:42;10.10;99.90
36352;DHT22;22382;44.768;17.206;2022-11-15T09:11:13;10.30;99.90
36352;DHT22;22382;44.768;17.206;2022-11-15T09:13:43;10.40;99.90
36352;DHT22;22382;44.768;17.206;2022-11-15T09:16:10;10.50;99.90
36352;DHT22;22382;44.768;17.206;2022-11-15T09:18:39;10.70;99.90
36352;DHT22;22382;44.768;17.206;2022-11-15T09:21:08;10.80;99.90
36352;DHT22;22382;44.768;17.206;2022-11-15T09:23:51;10.90;99.90
36352;DHT22;22382;44.768;17.206;2022-11-15T09:26:19;10.80;99.90
36352;DHT22;22382;44.768;17.206;2022-11-15T09:28:47;10.70;99.90
36352;DHT22;22382;44.768;17.206;2022-11-15T09:31:14;10.80;99.90
36352;DHT22;22382;44.768;17.206;2022-11-15T09:33:47;10.80;99.90
36352;DHT22;22382;44.768;17.206;2022-11-15T09:36:14;10.90;99.90
36352;DHT22;22382;44.768;17.206;2022-11-15T09:38:41;11.10;99.90
36352;DHT22;22382;44.768;17.206;2022-11-15T09:49:25;11.00;99.90
36352;DHT22;22382;44.768;17.206;2022-11-15T09:51:53;11.10;99.90
36352;DHT22;22382;44.768;17.206;2022-11-15T09:57:31;11.80;99.90
36352;DHT22;22382;44.768;17.206;2022-11-15T10:03:17;11.90;99.90
36352;DHT22;22382;44.768;17.206;2022-11-15T10:05:49;12.00;99.90
36352;DHT22;22382;44.768;17.206;2022-11-15T10:11:19;12.40;99.90
36352;DHT22;22382;44.768;17.206;2022-11-15T10:14:20;12.30;99.90
36352;DHT22;22382;44.768;17.206;2022-11-15T10:22:25;12.50;99.90
36352;DHT22;22382;44.768;17.206;2022-11-15T10:27:36;12.40;99.90
36352;DHT22;22382;44.768;17.206;2022-11-15T10:30:12;12.60;99.90
36352;DHT22;22382;44.768;17.206;2022-11-15T10:32:43;12.50;99.90
36352;DHT22;22382;44.768;17.206;2022-11-15T10:35:22;12.30;99.90
36352;DHT22;22382;44.768;17.206;2022-11-15T10:37:49;12.50;99.90
36352;DHT22;22382;44.768;17.206;2022-11-15T10:40:23;12.40;99.90
36352;DHT22;22382;44.768;17.206;2022-11-15T10:43:18;12.10;99.90
36352;DHT22;22382;44.768;17.206;2022-11-15T10:45:46;12.10;99.90
36352;DHT22;22382;44.768;17.206;2022-11-15T10:50:44;12.00;99.90
36352;DHT22;22382;44.768;17.206;2022-11-15T10:53:40;12.40;99.90
36352;DHT22;22382;44.768;17.206;2022-11-15T10:56:12;12.40;99.90
36352;DHT22;22382;44.768;17.206;2022-11-15T10:58:45;12.30;99.90
36352;DHT22;22382;44.768;17.206;2022-11-15T11:01:23;12.30;99.90
36352;DHT22;22382;44.768;17.206;2022-11-15T11:04:08;12.20;99.90
36352;DHT22;22382;44.768;17.206;2022-11-15T11:09:37;12.30;99.90
36352;DHT22;22382;44.768;17.206;2022-11-15T11:12:06;12.60;99.90
36352;DHT22;22382;44.768;17.206;2022-11-15T11:14:38;12.80;99.90
36352;DHT22;22382;44.768;17.206;2022-11-15T11:20:14;13.00;99.90
36352;DHT22;22382;44.768;17.206;2022-11-15T11:28:55;12.80;99.90
36352;DHT22;22382;44.768;17.206;2022-11-15T11:34:34;12.20;99.90
36352;DHT22;22382;44.768;17.206;2022-11-15T11:37:46;11.80;99.90
36352;DHT22;22382;44.768;17.206;2022-11-15T11:48:42;11.60;99.90
36352;DHT22;22382;44.768;17.206;2022-11-15T11:51:18;11.60;99.90
36352;DHT22;22382;44.768;17.206;2022-11-15T11:56:23;11.40;99.90
36352;DHT22;22382;44.768;17.206;2022-11-15T11:58:53;11.50;99.90
36352;DHT22;22382;44.768;17.206;2022-11-15T12:01:41;11.70;99.90
36352;DHT22;22382;44.768;17.206;2022-11-15T12:04:29;11.90;99.90
36352;DHT22;22382;44.768;17.206;2022-11-15T12:07:20;11.80;99.90
36352;DHT22;22382;44.768;17.206;2022-11-15T12:13:04;11.80;99.90
36352;DHT22;22382;44.768;17.206;2022-11-15T12:15:47;12.00;99.90
36352;DHT22;22382;44.768;17.206;2022-11-15T12:18:15;12.00;99.90
36352;DHT22;22382;44.768;17.206;2022-11-15T12:20:56;11.90;99.90
36352;DHT22;22382;44.768;17.206;2022-11-15T12:23:39;11.90;99.90
36352;DHT22;22382;44.768;17.206;2022-11-15T12:26:19;11.90;99.90
36352;DHT22;22382;44.768;17.206;2022-11-15T12:29:03;12.00;99.90
36352;DHT22;22382;44.768;17.206;2022-11-15T12:34:29;12.30;99.90
36352;DHT22;22382;44.768;17.206;2022-11-15T12:36:56;12.40;99.90
36352;DHT22;22382;44.768;17.206;2022-11-15T12:47:51;13.20;99.90
36352;DHT22;22382;44.768;17.206;2022-11-15T12:58:56;13.80;99.90
36352;DHT22;22382;44.768;17.206;2022-11-15T13:17:51;14.40;99.90
36352;DHT22;22382;44.768;17.206;2022-11-15T13:20:29;14.40;99.90
36352;DHT22;22382;44.768;17.206;2022-11-15T13:23:10;14.30;99.90
36352;DHT22;22382;44.768;17.206;2022-11-15T13:26:13;14.10;99.90
36352;DHT22;22382;44.768;17.206;2022-11-15T13:28:50;14.00;99.90
36352;DHT22;22382;44.768;17.206;2022-11-15T13:31:25;13.90;99.90
36352;DHT22;22382;44.768;17.206;2022-11-15T13:33:58;13.80;99.90
36352;DHT22;22382;44.768;17.206;2022-11-15T13:36:29;13.80;99.90
36352;DHT22;22382;44.768;17.206;2022-11-15T13:39:14;13.90;99.90
36352;DHT22;22382;44.768;17.206;2022-11-15T13:41:51;13.90;99.90
36352;DHT22;22382;44.768;17.206;2022-11-15T13:44:23;13.90;99.90
36352;DHT22;22382;44.768;17.206;2022-11-15T13:47:04;13.90;99.90
36352;DHT22;22382;44.768;17.206;2022-11-15T13:49:33;13.80;99.90
36352;DHT22;22382;44.768;17.206;2022-11-15T13:52:03;13.90;99.90
36352;DHT22;22382;44.768;17.206;2022-11-15T13:55:18;13.90;99.90
36352;DHT22;22382;44.768;17.206;2022-11-15T13:57:29;13.90;99.90
36352;DHT22;22382;44.768;17.206;2022-11-15T14:00:01;13.80;99.90
36352;DHT22;22382;44.768;17.206;2022-11-15T14:02:38;13.70;99.90
36352;DHT22;22382;44.768;17.206;2022-11-15T14:05:23;13.70;99.90
36352;DHT22;22382;44.768;17.206;2022-11-15T14:07:59;13.70;99.90
36352;DHT22;22382;44.768;17.206;2022-11-15T14:10:33;13.70;99.90
36352;DHT22;22382;44.768;17.206;2022-11-15T14:13:00;13.70;99.90
36352;DHT22;22382;44.768;17.206;2022-11-15T14:15:29;13.60;99.90
36352;DHT22;22382;44.768;17.206;2022-11-15T14:17:57;13.50;99.90
36352;DHT22;22382;44.768;17.206;2022-11-15T14:20:28;13.40;99.90
36352;DHT22;22382;44.768;17.206;2022-11-15T14:22:58;13.30;99.90
36352;DHT22;22382;44.768;17.206;2022-11-15T14:25:30;13.20;99.90
36352;DHT22;22382;44.768;17.206;2022-11-15T14:30:44;13.10;99.90
36352;DHT22;22382;44.768;17.206;2022-11-15T14:33:32;13.00;99.90
36352;DHT22;22382;44.768;17.206;2022-11-15T14:38:41;12.80;99.90
36352;DHT22;22382;44.768;17.206;2022-11-15T14:41:24;12.80;99.90
36352;DHT22;22382;44.768;17.206;2022-11-15T14:43:52;12.70;99.90
36352;DHT22;22382;44.768;17.206;2022-11-15T14:46:19;12.70;99.90
36352;DHT22;22382;44.768;17.206;2022-11-15T14:48:46;12.70;99.90
36352;DHT22;22382;44.768;17.206;2022-11-15T14:51:17;12.60;99.90
36352;DHT22;22382;44.768;17.206;2022-11-15T14:53:45;12.60;99.90
36352;DHT22;22382;44.768;17.206;2022-11-15T14:56:13;12.60;99.90
36352;DHT22;22382;44.768;17.206;2022-11-15T14:58:40;12.60;99.90
36352;DHT22;22382;44.768;17.206;2022-11-15T15:01:26;12.60;99.90
36352;DHT22;22382;44.768;17.206;2022-11-15T15:03:54;12.60;99.90
36352;DHT22;22382;44.768;17.206;2022-11-15T15:06:24;12.60;99.90
36352;DHT22;22382;44.768;17.206;2022-11-15T15:08:51;12.50;99.90
36352;DHT22;22382;44.768;17.206;2022-11-15T15:11:23;12.50;99.90
36352;DHT22;22382;44.768;17.206;2022-11-15T15:13:51;12.40;99.90
36352;DHT22;22382;44.768;17.206;2022-11-15T15:16:19;12.40;99.90
36352;DHT22;22382;44.768;17.206;2022-11-15T15:18:46;12.30;99.90
36352;DHT22;22382;44.768;17.206;2022-11-15T15:21:25;12.20;99.90
36352;DHT22;22382;44.768;17.206;2022-11-15T15:23:59;12.20;99.90
36352;DHT22;22382;44.768;17.206;2022-11-15T15:26:26;12.10;99.90
36352;DHT22;22382;44.768;17.206;2022-11-15T15:28:53;12.00;99.90
36352;DHT22;22382;44.768;17.206;2022-11-15T15:31:20;11.90;99.90
36352;DHT22;22382;44.768;17.206;2022-11-15T15:33:47;11.80;99.90
36352;DHT22;22382;44.768;17.206;2022-11-15T15:36:18;11.80;99.90
36352;DHT22;22382;44.768;17.206;2022-11-15T15:38:45;11.70;99.90
36352;DHT22;22382;44.768;17.206;2022-11-15T15:41:14;11.70;99.90
36352;DHT22;22382;44.768;17.206;2022-11-15T15:43:42;11.60;99.90
36352;DHT22;22382;44.768;17.206;2022-11-15T15:46:14;11.60;99.90
36352;DHT22;22382;44.768;17.206;2022-11-15T15:48:42;11.50;99.90
36352;DHT22;22382;44.768;17.206;2022-11-15T15:51:09;11.50;99.90
36352;DHT22;22382;44.768;17.206;2022-11-15T15:53:45;11.40;99.90
36352;DHT22;22382;44.768;17.206;2022-11-15T15:56:12;11.20;99.90
36352;DHT22;22382;44.768;17.206;2022-11-15T15:58:39;11.20;99.90
36352;DHT22;22382;44.768;17.206;2022-11-15T16:01:06;11.20;99.90
36352;DHT22;22382;44.768;17.206;2022-11-15T16:03:33;11.10;99.90
36352;DHT22;22382;44.768;17.206;2022-11-15T16:06:00;11.00;99.90
36352;DHT22;22382;44.768;17.206;2022-11-15T16:08:27;11.00;99.90
36352;DHT22;22382;44.768;17.206;2022-11-15T16:11:16;11.00;99.90
36352;DHT22;22382;44.768;17.206;2022-11-15T16:13:43;10.90;99.90
36352;DHT22;22382;44.768;17.206;2022-11-15T16:16:12;10.80;99.90
36352;DHT22;22382;44.768;17.206;2022-11-15T16:18:40;10.70;99.90
36352;DHT22;22382;44.768;17.206;2022-11-15T16:21:07;10.70;99.90
36352;DHT22;22382;44.768;17.206;2022-11-15T16:23:35;10.60;99.90
36352;DHT22;22382;44.768;17.206;2022-11-15T16:26:02;10.60;99.90
36352;DHT22;22382;44.768;17.206;2022-11-15T16:28:36;10.50;99.90
36352;DHT22;22382;44.768;17.206;2022-11-15T16:31:09;10.40;99.90
36352;DHT22;22382;44.768;17.206;2022-11-15T16:33:36;10.40;99.90
36352;DHT22;22382;44.768;17.206;2022-11-15T16:36:05;10.40;99.90
36352;DHT22;22382;44.768;17.206;2022-11-15T16:38:35;10.30;99.90
36352;DHT22;22382;44.768;17.206;2022-11-15T16:41:03;10.20;99.90
36352;DHT22;22382;44.768;17.206;2022-11-15T16:43:30;10.20;99.90
36352;DHT22;22382;44.768;17.206;2022-11-15T16:45:57;10.20;99.90
36352;DHT22;22382;44.768;17.206;2022-11-15T16:48:26;10.10;99.90
36352;DHT22;22382;44.768;17.206;2022-11-15T16:50:55;10.00;99.90
36352;DHT22;22382;44.768;17.206;2022-11-15T16:53:22;10.00;99.90
36352;DHT22;22382;44.768;17.206;2022-11-15T16:55:49;9.90;99.90
36352;DHT22;22382;44.768;17.206;2022-11-15T16:58:16;9.90;99.90
36352;DHT22;22382;44.768;17.206;2022-11-15T17:00:43;9.80;99.90
36352;DHT22;22382;44.768;17.206;2022-11-15T17:03:10;9.80;99.90
36352;DHT22;22382;44.768;17.206;2022-11-15T17:05:52;9.70;99.90
36352;DHT22;22382;44.768;17.206;2022-11-15T17:08:23;9.80;99.90
36352;DHT22;22382;44.768;17.206;2022-11-15T17:10:50;9.70;99.90
36352;DHT22;22382;44.768;17.206;2022-11-15T17:13:17;9.70;99.90
36352;DHT22;22382;44.768;17.206;2022-11-15T17:15:45;9.70;99.90
36352;DHT22;22382;44.768;17.206;2022-11-15T17:18:12;9.70;99.90
36352;DHT22;22382;44.768;17.206;2022-11-15T17:20:41;9.60;99.90
36352;DHT22;22382;44.768;17.206;2022-11-15T17:23:12;9.60;99.90
36352;DHT22;22382;44.768;17.206;2022-11-15T17:25:40;9.50;99.90
36352;DHT22;22382;44.768;17.206;2022-11-15T17:28:07;9.50;99.90
36352;DHT22;22382;44.768;17.206;2022-11-15T17:30:34;9.50;99.90
36352;DHT22;22382;44.768;17.206;2022-11-15T17:33:01;9.40;99.90
36352;DHT22;22382;44.768;17.206;2022-11-15T17:35:28;9.40;99.90
36352;DHT22;22382;44.768;17.206;2022-11-15T17:37:55;9.40;99.90
36352;DHT22;22382;44.768;17.206;2022-11-15T17:40:22;9.40;99.90
36352;DHT22;22382;44.768;17.206;2022-11-15T17:42:49;9.40;99.90
36352;DHT22;22382;44.768;17.206;2022-11-15T17:45:16;9.40;99.90
36352;DHT22;22382;44.768;17.206;2022-11-15T17:47:43;9.40;99.90
36352;DHT22;22382;44.768;17.206;2022-11-15T17:50:10;9.40;99.90
36352;DHT22;22382;44.768;17.206;2022-11-15T17:52:37;9.50;99.90
36352;DHT22;22382;44.768;17.206;2022-11-15T17:55:05;9.50;99.90